createdAt,value
2023-03-26T00:01:06.315Z,80.29
2023-03-26T00:03:38.470Z,78.44
2023-03-26T00:06:13.226Z,77.38
2023-03-26T00:08:42.703Z,77.35
2023-03-26T00:11:31.882Z,77.18
2023-03-26T00:14:03.095Z,78.07
2023-03-26T00:16:33.026Z,79.22
2023-03-26T00:19:03.337Z,80.13
2023-03-26T00:24:30.106Z,79.27
2023-03-26T00:27:02.569Z,78.00
2023-03-26T00:29:33.408Z,78.65
2023-03-26T00:32:02.145Z,77.91
2023-03-26T00:34:34.814Z,79.97
2023-03-26T00:37:04.599Z,77.97
2023-03-26T00:39:38.317Z,77.96
2023-03-26T00:42:18.469Z,79.05
2023-03-26T00:44:51.535Z,77.97
2023-03-26T00:47:20.264Z,77.21
2023-03-26T00:49:49.567Z,78.04
2023-03-26T00:52:19.443Z,77.16
2023-03-26T00:54:56.416Z,78.89
2023-03-26T00:57:35.927Z,78.47
2023-03-26T01:00:16.207Z,80.69
2023-03-26T01:02:51.565Z,80.22
2023-03-26T01:05:53.374Z,80.72
2023-03-26T01:08:38.605Z,80.36
2023-03-26T01:11:14.295Z,81.09
2023-03-26T01:13:48.522Z,81.79
2023-03-26T01:16:25.902Z,79.24
2023-03-26T01:18:54.455Z,80.30
2023-03-26T01:21:29.317Z,80.28
2023-03-26T01:24:02.211Z,80.80
2023-03-26T01:26:39.681Z,79.78
2023-03-26T01:29:10.668Z,79.50
2023-03-26T01:31:47.745Z,80.38
2023-03-26T01:34:28.929Z,80.10
2023-03-26T01:37:01.504Z,78.33
2023-03-26T01:39:36.246Z,78.30
2023-03-26T01:42:08.600Z,78.25
2023-03-26T01:44:42.017Z,77.53
2023-03-26T01:47:11.506Z,78.71
2023-03-26T01:49:43.608Z,78.55
2023-03-26T01:52:19.134Z,79.29
2023-03-26T01:54:50.640Z,77.36
2023-03-26T01:57:25.851Z,75.98
2023-03-26T02:00:16.818Z,75.72
2023-03-26T02:02:55.332Z,75.82
2023-03-26T02:05:30.002Z,75.13
2023-03-26T02:08:17.074Z,75.21
2023-03-26T02:10:48.876Z,73.54
2023-03-26T02:13:17.648Z,74.32
2023-03-26T02:15:57.714Z,75.52
2023-03-26T02:18:36.760Z,74.10
2023-03-26T02:21:12.360Z,75.19
2023-03-26T02:23:48.605Z,75.52
2023-03-26T02:26:21.034Z,75.34
2023-03-26T02:28:56.792Z,76.37
2023-03-26T02:31:31.525Z,77.11
2023-03-26T02:34:02.761Z,75.41
2023-03-26T02:36:32.368Z,76.20
2023-03-26T02:39:02.228Z,75.55
2023-03-26T02:41:32.051Z,75.86
2023-03-26T02:44:02.795Z,74.54
2023-03-26T02:46:37.795Z,75.31
2023-03-26T02:49:07.356Z,74.72
2023-03-26T02:51:37.537Z,75.54
2023-03-26T02:54:11.898Z,74.89
2023-03-26T02:56:41.648Z,74.36
2023-03-26T02:59:19.220Z,75.16
2023-03-26T03:01:51.598Z,75.93
2023-03-26T03:04:21.310Z,76.99
2023-03-26T03:06:53.017Z,76.28
2023-03-26T03:09:24.707Z,76.37
2023-03-26T03:12:00.460Z,75.62
2023-03-26T03:14:33.520Z,76.69
2023-03-26T03:17:02.059Z,75.67
2023-03-26T03:19:35.156Z,76.41
2023-03-26T03:22:03.592Z,77.02
2023-03-26T03:24:34.371Z,77.57
2023-03-26T03:27:04.403Z,76.48
2023-03-26T03:29:33.500Z,75.51
2023-03-26T03:32:03.688Z,75.23
2023-03-26T03:34:33.853Z,74.84
2023-03-26T03:37:02.366Z,74.85
2023-03-26T03:39:33.637Z,73.83
2023-03-26T03:42:10.069Z,74.78
2023-03-26T03:44:40.956Z,74.94
2023-03-26T03:47:12.049Z,75.89
2023-03-26T03:49:40.327Z,75.79
2023-03-26T03:52:09.538Z,76.19
2023-03-26T03:54:38.755Z,76.81
2023-03-26T03:57:08.694Z,77.67
2023-03-26T03:59:48.044Z,78.44
2023-03-26T04:02:26.924Z,76.79
2023-03-26T04:04:58.138Z,75.40
2023-03-26T04:07:28.510Z,74.01
2023-03-26T04:10:01.260Z,73.80
2023-03-26T04:12:34.836Z,73.81
2023-03-26T04:15:05.023Z,73.30
2023-03-26T04:17:33.507Z,74.55
2023-03-26T04:20:10.313Z,74.57
2023-03-26T04:22:39.938Z,74.66
2023-03-26T04:25:17.066Z,73.78
2023-03-26T04:27:49.415Z,75.85
2023-03-26T04:30:22.459Z,74.97
2023-03-26T04:32:59.189Z,73.38
2023-03-26T04:35:30.651Z,73.01
2023-03-26T04:37:59.147Z,74.13
2023-03-26T04:40:30.706Z,75.90
2023-03-26T04:43:02.776Z,78.57
2023-03-26T04:45:31.829Z,76.84
2023-03-26T04:48:01.144Z,77.67
2023-03-26T04:50:32.615Z,78.06
2023-03-26T04:53:01.112Z,76.12
2023-03-26T04:55:33.738Z,76.16
2023-03-26T04:58:06.562Z,75.81
2023-03-26T05:00:39.142Z,74.91
2023-03-26T05:03:12.331Z,77.48
2023-03-26T05:05:42.051Z,76.15
2023-03-26T05:08:10.445Z,76.13
2023-03-26T05:10:41.159Z,75.60
2023-03-26T05:13:11.504Z,73.94
2023-03-26T05:15:39.481Z,76.29
2023-03-26T05:18:10.277Z,75.50
2023-03-26T05:20:38.528Z,75.53
2023-03-26T05:23:12.419Z,74.09
2023-03-26T05:25:40.130Z,73.12
2023-03-26T05:28:14.627Z,73.42
2023-03-26T05:30:44.795Z,72.82
2023-03-26T05:33:19.020Z,73.30
2023-03-26T05:35:49.451Z,72.30
2023-03-26T05:38:19.212Z,73.05
2023-03-26T05:40:47.237Z,73.85
2023-03-26T05:43:19.955Z,72.76
2023-03-26T05:45:50.098Z,72.85
2023-03-26T05:48:22.280Z,74.34
2023-03-26T05:50:55.018Z,73.58
2023-03-26T05:53:39.889Z,72.66
2023-03-26T05:56:08.710Z,72.28
2023-03-26T05:58:42.038Z,72.80
2023-03-26T06:01:16.992Z,72.08
2023-03-26T06:04:04.944Z,72.78
2023-03-26T06:06:33.354Z,71.24
2023-03-26T06:09:02.976Z,72.69
2023-03-26T06:11:34.007Z,72.96
2023-03-26T06:14:03.880Z,72.10
2023-03-26T06:16:32.311Z,70.88
2023-03-26T06:19:06.985Z,70.02
2023-03-26T06:21:37.611Z,70.46
2023-03-26T06:24:10.727Z,71.18
2023-03-26T06:26:39.872Z,71.39
2023-03-26T06:29:09.538Z,74.07
2023-03-26T06:31:42.675Z,74.68
2023-03-26T06:34:12.013Z,74.36
2023-03-26T06:36:43.142Z,73.70
2023-03-26T06:39:11.624Z,72.89
2023-03-26T06:41:39.757Z,73.10
2023-03-26T06:44:11.690Z,72.42
2023-03-26T06:46:40.813Z,71.57
2023-03-26T06:49:12.339Z,70.06
2023-03-26T06:51:43.984Z,71.73
2023-03-26T06:54:13.734Z,71.87
2023-03-26T06:56:48.743Z,72.17
2023-03-26T06:59:20.839Z,72.07
2023-03-26T07:01:50.921Z,71.56
2023-03-26T07:04:21.417Z,71.88
2023-03-26T07:06:54.056Z,71.65
2023-03-26T07:09:26.539Z,72.00
2023-03-26T07:11:58.194Z,71.75
2023-03-26T07:14:31.768Z,73.09
2023-03-26T07:17:01.653Z,71.80
2023-03-26T07:19:31.330Z,73.69
2023-03-26T07:22:08.208Z,74.87
2023-03-26T07:24:38.660Z,71.59
2023-03-26T07:27:21.748Z,74.87
2023-03-26T07:29:56.892Z,71.82
2023-03-26T07:32:31.474Z,73.17
2023-03-26T07:35:05.220Z,74.82
2023-03-26T07:37:41.886Z,76.20
2023-03-26T07:40:29.998Z,75.58
2023-03-26T07:43:02.221Z,74.15
2023-03-26T07:45:39.961Z,75.11
2023-03-26T07:48:15.381Z,75.51
2023-03-26T07:50:45.440Z,75.68
2023-03-26T07:53:22.520Z,75.25
2023-03-26T07:55:56.940Z,76.30
2023-03-26T07:58:46.707Z,77.73
2023-03-26T08:01:20.691Z,77.91
2023-03-26T08:04:24.103Z,77.60
2023-03-26T08:06:57.859Z,77.61
2023-03-26T08:09:37.337Z,76.61
2023-03-26T08:12:11.258Z,74.83
2023-03-26T08:14:50.145Z,77.66
2023-03-26T08:17:25.493Z,75.42
2023-03-26T08:20:02.438Z,76.59
2023-03-26T08:22:40.528Z,75.15
2023-03-26T08:25:25.105Z,76.66
2023-03-26T08:28:14.242Z,77.36
2023-03-26T08:30:42.788Z,75.89
2023-03-26T08:33:17.957Z,76.10
2023-03-26T08:36:13.086Z,74.60
2023-03-26T08:38:45.676Z,73.91
2023-03-26T08:41:52.596Z,74.24
2023-03-26T08:44:56.171Z,74.14
2023-03-26T08:48:09.794Z,73.98
2023-03-26T08:51:07.748Z,75.43
2023-03-26T08:54:28.716Z,74.74
2023-03-26T08:57:09.477Z,75.64
2023-03-26T09:00:31.090Z,75.34
2023-03-26T09:03:38.521Z,75.64
2023-03-26T09:07:10.499Z,75.33
2023-03-26T09:10:09.217Z,75.73
2023-03-26T09:13:26.303Z,76.54
2023-03-26T09:16:37.987Z,77.33
2023-03-26T09:19:29.035Z,76.55
2023-03-26T09:22:26.776Z,77.51
2023-03-26T09:25:22.458Z,76.93
2023-03-26T09:28:05.369Z,79.66
2023-03-26T09:30:58.909Z,81.82
2023-03-26T09:33:50.607Z,80.53
2023-03-26T09:36:26.371Z,82.14
2023-03-26T09:38:56.702Z,81.04
2023-03-26T09:41:37.594Z,79.56
2023-03-26T09:44:46.752Z,82.58
2023-03-26T09:47:58.700Z,80.49
2023-03-26T09:50:37.681Z,78.80
2023-03-26T09:53:31.100Z,79.78
2023-03-26T09:56:12.046Z,79.44
2023-03-26T09:59:22.092Z,78.28
2023-03-26T10:01:56.652Z,78.57
2023-03-26T10:05:09.591Z,77.89
2023-03-26T10:08:12.529Z,79.36
2023-03-26T10:10:46.722Z,78.44
2023-03-26T10:13:25.756Z,78.92
2023-03-26T10:16:26.176Z,78.35
2023-03-26T10:19:08.657Z,74.28
2023-03-26T10:21:46.354Z,72.59
2023-03-26T10:24:46.907Z,73.57
2023-03-26T10:27:28.370Z,71.76
2023-03-26T10:30:16.548Z,71.74
2023-03-26T10:32:51.989Z,72.06
2023-03-26T10:35:29.820Z,72.41
2023-03-26T10:38:20.200Z,71.08
2023-03-26T10:41:05.655Z,71.54
2023-03-26T10:44:16.027Z,70.52
2023-03-26T10:47:08.809Z,69.14
2023-03-26T10:50:07.006Z,67.49
2023-03-26T10:52:42.755Z,68.33
2023-03-26T10:55:15.366Z,68.31
2023-03-26T10:57:47.642Z,67.00
2023-03-26T11:00:25.421Z,66.94
2023-03-26T11:03:25.815Z,65.86
2023-03-26T11:06:03.855Z,63.52
2023-03-26T11:08:44.790Z,60.61
2023-03-26T11:11:21.997Z,61.10
2023-03-26T11:13:57.722Z,59.90
2023-03-26T11:16:32.520Z,61.06
2023-03-26T11:19:05.598Z,61.25
2023-03-26T11:21:46.922Z,60.52
2023-03-26T11:24:47.659Z,60.15
2023-03-26T11:27:26.357Z,59.64
2023-03-26T11:30:08.962Z,59.53
2023-03-26T11:32:42.604Z,60.08
2023-03-26T11:35:40.923Z,59.63
2023-03-26T11:38:17.846Z,58.95
2023-03-26T11:40:51.965Z,61.08
2023-03-26T11:43:33.206Z,60.09
2023-03-26T11:46:03.280Z,60.98
2023-03-26T11:48:39.948Z,62.49
2023-03-26T11:51:16.916Z,61.73
2023-03-26T11:53:46.965Z,63.43
2023-03-26T11:56:23.873Z,70.24
2023-03-26T11:58:56.552Z,76.30
2023-03-26T12:01:33.883Z,76.83
2023-03-26T12:04:10.400Z,75.26
2023-03-26T12:06:40.049Z,71.52
2023-03-26T12:09:21.300Z,69.90
2023-03-26T12:11:53.227Z,70.54
2023-03-26T12:14:27.519Z,69.88
2023-03-26T12:17:05.448Z,68.86
2023-03-26T12:19:40.970Z,70.33
2023-03-26T12:22:29.909Z,72.13
2023-03-26T12:25:17.549Z,74.56
2023-03-26T12:27:46.863Z,74.16
2023-03-26T12:30:21.921Z,73.56
2023-03-26T12:32:54.746Z,70.28
2023-03-26T12:35:29.630Z,70.35
2023-03-26T12:38:16.482Z,69.50
2023-03-26T12:40:48.679Z,67.03
2023-03-26T12:44:47.212Z,69.19
2023-03-26T12:47:55.383Z,67.07
2023-03-26T12:49:14.729Z,65.01
2023-03-26T12:51:57.689Z,64.02
2023-03-26T12:54:44.226Z,62.88
2023-03-26T12:57:32.665Z,63.74
2023-03-26T13:00:31.665Z,65.79
2023-03-26T13:03:19.513Z,62.43
2023-03-26T13:06:10.518Z,60.97
2023-03-26T13:09:06.881Z,61.92
2023-03-26T13:11:48.721Z,61.83
2023-03-26T13:15:02.451Z,61.67
2023-03-26T13:17:36.664Z,59.66
2023-03-26T13:20:13.185Z,60.19
2023-03-26T13:23:02.410Z,59.67
2023-03-26T13:25:40.134Z,59.57
2023-03-26T13:28:20.982Z,59.25
2023-03-26T13:31:00.764Z,59.29
2023-03-26T13:33:42.234Z,58.60
2023-03-26T13:36:23.922Z,56.01
2023-03-26T13:39:05.039Z,58.79
2023-03-26T13:41:46.448Z,59.15
2023-03-26T13:44:29.518Z,59.73
2023-03-26T13:47:22.663Z,55.49
2023-03-26T13:49:58.719Z,55.61
2023-03-26T13:52:38.666Z,57.58
2023-03-26T13:55:20.875Z,57.68
2023-03-26T13:57:55.664Z,57.00
2023-03-26T14:00:29.628Z,57.36
2023-03-26T14:03:00.641Z,57.52
2023-03-26T14:05:37.626Z,56.76
2023-03-26T14:08:13.250Z,57.37
2023-03-26T14:10:52.853Z,56.85
2023-03-26T14:13:25.195Z,54.63
2023-03-26T14:15:56.263Z,55.56
2023-03-26T14:18:34.369Z,57.75
2023-03-26T14:21:24.968Z,61.37
2023-03-26T14:24:12.895Z,65.17
2023-03-26T14:27:11.514Z,66.89
2023-03-26T14:29:56.924Z,69.04
2023-03-26T14:32:54.483Z,69.29
2023-03-26T14:35:46.206Z,69.52
2023-03-26T14:38:47.020Z,71.05
2023-03-26T14:41:24.804Z,71.12
2023-03-26T14:44:47.692Z,74.41
2023-03-26T14:47:25.018Z,74.24
2023-03-26T14:50:28.899Z,76.06
2023-03-26T14:53:02.384Z,79.42
2023-03-26T14:55:49.691Z,79.72
2023-03-26T14:59:05.213Z,80.86
2023-03-26T15:02:00.426Z,83.18
2023-03-26T15:05:07.842Z,81.96
2023-03-26T15:08:13.582Z,82.39
2023-03-26T15:11:25.665Z,82.61
2023-03-26T15:14:48.438Z,84.05
2023-03-26T15:17:51.732Z,86.65
2023-03-26T15:20:59.253Z,84.35
2023-03-26T15:24:02.349Z,85.30
2023-03-26T15:27:18.173Z,85.88
2023-03-26T15:30:22.463Z,84.96
2023-03-26T15:33:37.104Z,83.82
2023-03-26T15:36:31.846Z,82.29
2023-03-26T15:39:58.575Z,84.28
2023-03-26T15:42:42.950Z,83.65
2023-03-26T15:45:44.314Z,82.14
2023-03-26T15:48:38.277Z,83.51
2023-03-26T15:51:20.303Z,83.53
2023-03-26T15:54:02.116Z,82.61
2023-03-26T15:56:51.090Z,83.12
2023-03-26T16:02:41.657Z,84.06
2023-03-26T16:05:32.677Z,85.50
2023-03-26T16:08:12.139Z,83.62
2023-03-26T16:10:49.581Z,83.11
2023-03-26T16:13:43.928Z,83.32
2023-03-26T16:16:42.863Z,82.94
2023-03-26T16:19:38.580Z,84.15
2023-03-26T16:22:08.523Z,81.34
2023-03-26T16:24:41.178Z,82.54
2023-03-26T16:27:28.040Z,81.87
2023-03-26T16:30:30.721Z,81.09
2023-03-26T16:33:11.420Z,82.28
2023-03-26T16:36:14.243Z,82.63
2023-03-26T16:38:54.967Z,82.34
2023-03-26T16:41:37.730Z,81.98
2023-03-26T16:44:19.710Z,83.32
2023-03-26T16:47:00.782Z,83.81
2023-03-26T16:49:39.744Z,81.77
2023-03-26T16:52:25.659Z,82.11
2023-03-26T16:55:01.771Z,82.52
2023-03-26T16:57:31.275Z,83.06
2023-03-26T17:00:21.309Z,83.08
2023-03-26T17:03:00.095Z,81.50
2023-03-26T17:05:37.197Z,81.32
2023-03-26T17:08:17.532Z,81.65
2023-03-26T17:10:48.987Z,80.69
2023-03-26T17:13:23.336Z,81.01
2023-03-26T17:16:15.517Z,80.33
2023-03-26T17:18:54.949Z,79.14
2023-03-26T17:21:30.442Z,77.46
2023-03-26T17:24:29.018Z,79.62
2023-03-26T17:27:04.264Z,78.81
2023-03-26T17:29:43.773Z,79.75
2023-03-26T17:32:16.134Z,78.38
2023-03-26T17:34:57.822Z,78.44
2023-03-26T17:37:50.063Z,79.58
2023-03-26T17:40:47.729Z,79.09
2023-03-26T17:43:36.675Z,79.58
2023-03-26T17:46:09.576Z,76.78
2023-03-26T17:48:45.683Z,77.52
2023-03-26T17:51:25.017Z,77.20
2023-03-26T17:53:55.765Z,76.51
2023-03-26T17:56:33.010Z,77.09
2023-03-26T17:59:11.502Z,77.21
2023-03-26T18:01:45.125Z,78.79
2023-03-26T18:04:19.230Z,77.99
2023-03-26T18:07:22.340Z,77.20
2023-03-26T18:10:07.388Z,76.67
2023-03-26T18:12:59.644Z,75.07
2023-03-26T18:15:37.864Z,77.55
2023-03-26T18:18:13.605Z,76.97
2023-03-26T18:20:47.608Z,76.93
2023-03-26T18:23:30.360Z,77.56
2023-03-26T18:26:13.065Z,77.27
2023-03-26T18:28:50.592Z,78.32
2023-03-26T18:31:20.742Z,77.36
2023-03-26T18:33:50.008Z,77.68
2023-03-26T18:36:23.849Z,77.11
2023-03-26T18:38:58.174Z,78.03
2023-03-26T18:41:37.816Z,78.02
2023-03-26T18:44:18.018Z,78.05
2023-03-26T18:46:50.439Z,78.24
2023-03-26T18:49:24.309Z,78.81
2023-03-26T18:51:57.470Z,79.99
2023-03-26T18:54:38.696Z,78.54
2023-03-26T18:57:15.741Z,79.23
2023-03-26T18:59:55.313Z,79.34
2023-03-26T19:02:31.868Z,79.36
2023-03-26T19:05:03.891Z,79.65
2023-03-26T19:07:32.372Z,80.83
2023-03-26T19:10:07.019Z,80.70
2023-03-26T19:12:37.044Z,81.74
2023-03-26T19:15:09.102Z,81.68
2023-03-26T19:17:41.067Z,80.84
2023-03-26T19:20:18.032Z,80.10
2023-03-26T19:22:49.161Z,80.48
2023-03-26T19:25:24.288Z,81.62
2023-03-26T19:27:58.249Z,81.02
2023-03-26T19:30:35.489Z,79.84
2023-03-26T19:33:12.870Z,80.82
2023-03-26T19:35:44.202Z,80.08
2023-03-26T19:38:26.849Z,81.21
2023-03-26T19:41:01.776Z,79.40
2023-03-26T19:43:32.331Z,81.23
2023-03-26T19:46:05.421Z,80.40
2023-03-26T19:51:18.597Z,79.67
2023-03-26T19:51:33.685Z,77.78
2023-03-26T19:54:04.541Z,80.03
2023-03-26T19:56:34.136Z,80.71
2023-03-26T19:59:09.565Z,80.79
2023-03-26T20:01:39.426Z,80.39
2023-03-26T20:04:12.070Z,80.02
2023-03-26T20:06:44.228Z,81.22
2023-03-26T20:09:16.384Z,80.14
2023-03-26T20:11:47.611Z,78.63
2023-03-26T20:14:18.957Z,80.08
2023-03-26T20:16:54.257Z,79.19
2023-03-26T20:19:35.401Z,78.52
2023-03-26T20:22:07.970Z,78.44
2023-03-26T20:24:36.777Z,79.18
2023-03-26T20:27:18.172Z,78.44
2023-03-26T20:29:46.934Z,77.35
2023-03-26T20:32:34.751Z,78.64
2023-03-26T20:35:03.820Z,80.92
2023-03-26T20:37:42.408Z,81.36
2023-03-26T20:40:14.498Z,80.66
2023-03-26T20:42:48.057Z,80.76
2023-03-26T20:45:20.750Z,80.73
2023-03-26T20:47:51.439Z,79.96
2023-03-26T20:53:19.444Z,79.98
2023-03-26T20:55:51.076Z,79.53
2023-03-26T20:58:31.384Z,79.91
2023-03-26T21:01:01.908Z,80.57
2023-03-26T21:03:33.668Z,80.16
2023-03-26T21:06:05.976Z,80.00
2023-03-26T21:08:40.914Z,80.05
2023-03-26T21:11:26.856Z,80.41
2023-03-26T21:14:02.075Z,81.15
2023-03-26T21:16:30.956Z,81.52
2023-03-26T21:19:05.583Z,81.45
2023-03-26T21:21:46.258Z,81.35
2023-03-26T21:24:26.000Z,82.94
2023-03-26T21:27:05.676Z,83.70
2023-03-26T21:29:33.988Z,83.35
2023-03-26T21:32:06.292Z,82.52
2023-03-26T21:34:42.007Z,83.33
2023-03-26T21:37:13.810Z,81.88
2023-03-26T21:39:52.592Z,82.26
2023-03-26T21:42:21.612Z,82.56
2023-03-26T21:44:55.495Z,83.76
2023-03-26T21:47:27.800Z,83.41
2023-03-26T21:50:03.258Z,82.77
2023-03-26T21:52:32.628Z,84.36
2023-03-26T21:55:06.634Z,84.25
2023-03-26T21:57:58.563Z,83.45
2023-03-26T22:00:42.736Z,83.26
2023-03-26T22:03:22.685Z,82.23
2023-03-26T22:06:05.802Z,82.93
2023-03-26T22:08:42.222Z,83.37
2023-03-26T22:11:13.719Z,81.38
2023-03-26T22:13:44.014Z,83.57
2023-03-26T22:16:17.148Z,84.58
2023-03-26T22:18:48.958Z,83.77
2023-03-26T22:21:20.164Z,84.79
2023-03-26T22:23:52.736Z,84.81
2023-03-26T22:26:22.301Z,86.09
2023-03-26T22:28:53.775Z,85.17
2023-03-26T22:31:31.248Z,83.45
2023-03-26T22:34:00.597Z,84.19
2023-03-26T22:36:31.811Z,84.86
2023-03-26T22:39:01.651Z,85.55
2023-03-26T22:41:32.414Z,85.69
2023-03-26T22:44:16.735Z,86.02
2023-03-26T22:46:49.963Z,86.99
2023-03-26T22:49:20.629Z,87.02
2023-03-26T22:51:54.081Z,90.31
2023-03-26T22:54:25.163Z,91.55
2023-03-26T22:56:59.266Z,90.05
2023-03-26T22:59:28.424Z,88.88
2023-03-26T23:01:58.025Z,89.49
2023-03-26T23:04:31.413Z,87.50
2023-03-26T23:07:13.544Z,91.11
2023-03-26T23:09:46.635Z,92.07
2023-03-26T23:12:19.029Z,91.64
2023-03-26T23:14:56.111Z,90.10
2023-03-26T23:17:28.098Z,90.98
2023-03-26T23:19:56.509Z,91.98
2023-03-26T23:22:27.204Z,89.12
2023-03-26T23:24:58.702Z,93.37
2023-03-26T23:27:28.521Z,94.68
2023-03-26T23:29:59.489Z,94.28
2023-03-26T23:32:28.434Z,95.76
2023-03-26T23:34:57.265Z,95.42
2023-03-26T23:37:35.384Z,95.85
2023-03-26T23:40:08.798Z,95.01
2023-03-26T23:42:38.247Z,96.50
2023-03-26T23:45:17.514Z,97.44
2023-03-26T23:47:51.841Z,98.97
2023-03-26T23:50:21.078Z,98.07
2023-03-26T23:52:56.961Z,99.24
2023-03-26T23:55:29.387Z,100.00
2023-03-26T23:58:00.319Z,99.77
